sensor_id;sensor_type;location;lat;lon;timestamp;temperature;humidity
25440;DHT22;13365;52.208;5.488;2022-10-12T00:01:51;14.70;88.10
25440;DHT22;13365;52.208;5.488;2022-10-12T00:04:17;14.70;88.20
25440;DHT22;13365;52.208;5.488;2022-10-12T00:06:42;14.80;88.30
25440;DHT22;13365;52.208;5.488;2022-10-12T00:09:08;14.70;88.20
25440;DHT22;13365;52.208;5.488;2022-10-12T00:11:33;14.70;88.30
25440;DHT22;13365;52.208;5.488;2022-10-12T00:13:59;14.60;88.20
25440;DHT22;13365;52.208;5.488;2022-10-12T00:16:26;14.70;88.20
25440;DHT22;13365;52.208;5.488;2022-10-12T00:18:56;14.70;87.90
25440;DHT22;13365;52.208;5.488;2022-10-12T00:21:22;14.60;87.80
25440;DHT22;13365;52.208;5.488;2022-10-12T00:23:49;14.60;88.00
25440;DHT22;13365;52.208;5.488;2022-10-12T00:26:19;14.60;88.20
25440;DHT22;13365;52.208;5.488;2022-10-12T00:28:46;14.50;88.10
25440;DHT22;13365;52.208;5.488;2022-10-12T00:31:17;14.40;88.00
25440;DHT22;13365;52.208;5.488;2022-10-12T00:33:44;14.30;88.40
25440;DHT22;13365;52.208;5.488;2022-10-12T00:36:18;14.20;88.50
25440;DHT22;13365;52.208;5.488;2022-10-12T00:38:44;14.20;88.20
25440;DHT22;13365;52.208;5.488;2022-10-12T00:41:11;14.20;88.10
25440;DHT22;13365;52.208;5.488;2022-10-12T00:43:39;14.20;88.20
25440;DHT22;13365;52.208;5.488;2022-10-12T00:46:30;14.10;87.80
25440;DHT22;13365;52.208;5.488;2022-10-12T00:49:08;14.00;88.70
25440;DHT22;13365;52.208;5.488;2022-10-12T00:51:34;14.00;88.10
25440;DHT22;13365;52.208;5.488;2022-10-12T00:54:04;14.00;87.70
25440;DHT22;13365;52.208;5.488;2022-10-12T00:56:35;14.00;87.70
25440;DHT22;13365;52.208;5.488;2022-10-12T00:59:06;14.00;87.50
25440;DHT22;13365;52.208;5.488;2022-10-12T01:01:33;14.00;87.50
25440;DHT22;13365;52.208;5.488;2022-10-12T01:04:00;14.00;87.20
25440;DHT22;13365;52.208;5.488;2022-10-12T01:06:27;13.90;87.10
25440;DHT22;13365;52.208;5.488;2022-10-12T01:08:53;13.90;87.30
25440;DHT22;13365;52.208;5.488;2022-10-12T01:11:19;13.80;87.70
25440;DHT22;13365;52.208;5.488;2022-10-12T01:13:44;13.70;87.70
25440;DHT22;13365;52.208;5.488;2022-10-12T01:19:43;13.70;87.70
25440;DHT22;13365;52.208;5.488;2022-10-12T01:22:16;13.60;87.60
25440;DHT22;13365;52.208;5.488;2022-10-12T01:27:17;13.50;87.50
25440;DHT22;13365;52.208;5.488;2022-10-12T01:35:20;13.60;87.50
25440;DHT22;13365;52.208;5.488;2022-10-12T01:40:38;13.40;87.70
25440;DHT22;13365;52.208;5.488;2022-10-12T01:43:04;13.40;87.90
25440;DHT22;13365;52.208;5.488;2022-10-12T01:45:29;13.40;87.90
25440;DHT22;13365;52.208;5.488;2022-10-12T01:47:55;13.40;87.90
25440;DHT22;13365;52.208;5.488;2022-10-12T01:50:24;13.40;87.90
25440;DHT22;13365;52.208;5.488;2022-10-12T01:55:37;13.50;87.60
25440;DHT22;13365;52.208;5.488;2022-10-12T02:01:19;13.40;87.50
25440;DHT22;13365;52.208;5.488;2022-10-12T02:03:52;13.40;87.30
25440;DHT22;13365;52.208;5.488;2022-10-12T02:06:22;13.30;87.60
25440;DHT22;13365;52.208;5.488;2022-10-12T02:09:14;13.30;87.50
25440;DHT22;13365;52.208;5.488;2022-10-12T02:11:42;13.40;87.50
25440;DHT22;13365;52.208;5.488;2022-10-12T02:14:19;13.30;87.40
25440;DHT22;13365;52.208;5.488;2022-10-12T02:16:50;13.30;87.60
25440;DHT22;13365;52.208;5.488;2022-10-12T02:19:22;13.20;87.80
25440;DHT22;13365;52.208;5.488;2022-10-12T02:21:50;13.20;88.00
25440;DHT22;13365;52.208;5.488;2022-10-12T02:24:17;13.20;87.80
25440;DHT22;13365;52.208;5.488;2022-10-12T02:26:46;13.30;87.60
25440;DHT22;13365;52.208;5.488;2022-10-12T02:29:22;13.20;87.60
25440;DHT22;13365;52.208;5.488;2022-10-12T02:35:06;13.30;87.80
25440;DHT22;13365;52.208;5.488;2022-10-12T02:40:25;13.20;87.90
25440;DHT22;13365;52.208;5.488;2022-10-12T02:43:04;13.20;87.60
25440;DHT22;13365;52.208;5.488;2022-10-12T02:45:32;13.20;87.60
25440;DHT22;13365;52.208;5.488;2022-10-12T02:47:59;13.20;87.60
25440;DHT22;13365;52.208;5.488;2022-10-12T02:50:26;13.10;87.50
25440;DHT22;13365;52.208;5.488;2022-10-12T02:52:52;13.10;87.70
25440;DHT22;13365;52.208;5.488;2022-10-12T02:55:18;13.00;87.50
25440;DHT22;13365;52.208;5.488;2022-10-12T02:57:44;13.10;87.70
25440;DHT22;13365;52.208;5.488;2022-10-12T03:00:10;13.10;87.60
25440;DHT22;13365;52.208;5.488;2022-10-12T03:02:35;13.10;87.60
25440;DHT22;13365;52.208;5.488;2022-10-12T03:05:01;13.20;87.60
25440;DHT22;13365;52.208;5.488;2022-10-12T03:07:27;13.10;87.50
25440;DHT22;13365;52.208;5.488;2022-10-12T03:09:52;13.10;87.70
25440;DHT22;13365;52.208;5.488;2022-10-12T03:12:18;13.00;87.60
25440;DHT22;13365;52.208;5.488;2022-10-12T03:14:43;13.10;87.90
25440;DHT22;13365;52.208;5.488;2022-10-12T03:17:09;13.10;87.60
25440;DHT22;13365;52.208;5.488;2022-10-12T03:19:34;13.10;87.50
25440;DHT22;13365;52.208;5.488;2022-10-12T03:22:02;13.10;87.30
25440;DHT22;13365;52.208;5.488;2022-10-12T03:24:28;13.10;87.20
25440;DHT22;13365;52.208;5.488;2022-10-12T03:26:53;13.10;87.00
25440;DHT22;13365;52.208;5.488;2022-10-12T03:29:19;13.10;86.90
25440;DHT22;13365;52.208;5.488;2022-10-12T03:31:44;13.00;86.80
25440;DHT22;13365;52.208;5.488;2022-10-12T03:34:10;12.90;86.90
25440;DHT22;13365;52.208;5.488;2022-10-12T03:36:35;13.00;87.00
25440;DHT22;13365;52.208;5.488;2022-10-12T03:39:02;13.10;86.80
25440;DHT22;13365;52.208;5.488;2022-10-12T03:41:28;13.00;86.70
25440;DHT22;13365;52.208;5.488;2022-10-12T03:43:53;12.90;86.80
25440;DHT22;13365;52.208;5.488;2022-10-12T03:46:19;13.00;86.70
25440;DHT22;13365;52.208;5.488;2022-10-12T03:48:44;13.00;87.00
25440;DHT22;13365;52.208;5.488;2022-10-12T03:51:10;12.90;86.60
25440;DHT22;13365;52.208;5.488;2022-10-12T03:53:35;12.90;87.00
25440;DHT22;13365;52.208;5.488;2022-10-12T03:56:01;12.90;86.80
25440;DHT22;13365;52.208;5.488;2022-10-12T03:58:26;12.90;86.80
25440;DHT22;13365;52.208;5.488;2022-10-12T04:00:53;12.80;86.70
25440;DHT22;13365;52.208;5.488;2022-10-12T04:03:18;12.80;86.70
25440;DHT22;13365;52.208;5.488;2022-10-12T04:05:51;12.80;86.70
25440;DHT22;13365;52.208;5.488;2022-10-12T04:08:17;12.70;86.40
25440;DHT22;13365;52.208;5.488;2022-10-12T04:10:43;12.70;86.10
25440;DHT22;13365;52.208;5.488;2022-10-12T04:13:08;12.70;86.10
25440;DHT22;13365;52.208;5.488;2022-10-12T04:15:34;12.60;86.00
25440;DHT22;13365;52.208;5.488;2022-10-12T04:17:59;12.70;85.80
25440;DHT22;13365;52.208;5.488;2022-10-12T04:20:25;12.60;85.70
25440;DHT22;13365;52.208;5.488;2022-10-12T04:22:50;12.60;85.60
25440;DHT22;13365;52.208;5.488;2022-10-12T04:25:16;12.60;85.90
25440;DHT22;13365;52.208;5.488;2022-10-12T04:27:41;12.50;85.80
25440;DHT22;13365;52.208;5.488;2022-10-12T04:30:07;12.50;86.00
25440;DHT22;13365;52.208;5.488;2022-10-12T04:32:33;12.50;86.00
25440;DHT22;13365;52.208;5.488;2022-10-12T04:34:59;12.40;85.70
25440;DHT22;13365;52.208;5.488;2022-10-12T04:37:26;12.40;85.80
25440;DHT22;13365;52.208;5.488;2022-10-12T04:39:52;12.30;85.60
25440;DHT22;13365;52.208;5.488;2022-10-12T04:42:17;12.30;85.70
25440;DHT22;13365;52.208;5.488;2022-10-12T04:44:43;12.10;85.50
25440;DHT22;13365;52.208;5.488;2022-10-12T04:47:08;12.30;85.60
25440;DHT22;13365;52.208;5.488;2022-10-12T04:49:34;12.20;85.60
25440;DHT22;13365;52.208;5.488;2022-10-12T04:51:59;12.20;85.60
25440;DHT22;13365;52.208;5.488;2022-10-12T04:54:25;12.20;85.50
25440;DHT22;13365;52.208;5.488;2022-10-12T04:56:50;12.20;85.50
25440;DHT22;13365;52.208;5.488;2022-10-12T04:59:16;12.10;85.60
25440;DHT22;13365;52.208;5.488;2022-10-12T05:01:41;12.10;85.80
25440;DHT22;13365;52.208;5.488;2022-10-12T05:04:07;12.10;85.70
25440;DHT22;13365;52.208;5.488;2022-10-12T05:06:33;12.10;85.80
25440;DHT22;13365;52.208;5.488;2022-10-12T05:08:58;12.10;85.80
25440;DHT22;13365;52.208;5.488;2022-10-12T05:11:24;12.10;85.80
25440;DHT22;13365;52.208;5.488;2022-10-12T05:13:49;12.10;85.60
25440;DHT22;13365;52.208;5.488;2022-10-12T05:16:15;12.00;85.50
25440;DHT22;13365;52.208;5.488;2022-10-12T05:18:40;11.90;85.50
25440;DHT22;13365;52.208;5.488;2022-10-12T05:21:06;11.90;85.60
25440;DHT22;13365;52.208;5.488;2022-10-12T05:23:31;12.00;85.90
25440;DHT22;13365;52.208;5.488;2022-10-12T05:25:57;12.00;85.70
25440;DHT22;13365;52.208;5.488;2022-10-12T05:28:23;11.90;85.80
25440;DHT22;13365;52.208;5.488;2022-10-12T05:30:49;11.90;85.80
25440;DHT22;13365;52.208;5.488;2022-10-12T05:33:15;11.80;85.90
25440;DHT22;13365;52.208;5.488;2022-10-12T05:35:41;11.80;86.20
25440;DHT22;13365;52.208;5.488;2022-10-12T05:38:06;11.80;86.20
25440;DHT22;13365;52.208;5.488;2022-10-12T05:40:32;11.80;86.20
25440;DHT22;13365;52.208;5.488;2022-10-12T05:42:57;11.70;86.20
25440;DHT22;13365;52.208;5.488;2022-10-12T05:45:23;11.70;86.30
25440;DHT22;13365;52.208;5.488;2022-10-12T05:47:49;11.70;86.40
25440;DHT22;13365;52.208;5.488;2022-10-12T05:50:14;11.70;86.40
25440;DHT22;13365;52.208;5.488;2022-10-12T05:52:40;11.70;86.30
25440;DHT22;13365;52.208;5.488;2022-10-12T05:55:06;11.80;86.40
25440;DHT22;13365;52.208;5.488;2022-10-12T05:57:31;11.70;86.30
25440;DHT22;13365;52.208;5.488;2022-10-12T05:59:57;11.70;86.60
25440;DHT22;13365;52.208;5.488;2022-10-12T06:02:23;11.60;86.70
25440;DHT22;13365;52.208;5.488;2022-10-12T06:04:48;11.60;86.70
25440;DHT22;13365;52.208;5.488;2022-10-12T06:07:14;11.70;87.20
25440;DHT22;13365;52.208;5.488;2022-10-12T06:09:39;11.60;87.30
25440;DHT22;13365;52.208;5.488;2022-10-12T06:12:06;11.70;87.60
25440;DHT22;13365;52.208;5.488;2022-10-12T06:14:32;11.70;87.50
25440;DHT22;13365;52.208;5.488;2022-10-12T06:16:57;11.80;87.60
25440;DHT22;13365;52.208;5.488;2022-10-12T06:19:23;11.80;87.90
25440;DHT22;13365;52.208;5.488;2022-10-12T06:21:48;11.90;87.90
25440;DHT22;13365;52.208;5.488;2022-10-12T06:24:14;12.00;88.00
25440;DHT22;13365;52.208;5.488;2022-10-12T06:26:39;11.80;88.00
25440;DHT22;13365;52.208;5.488;2022-10-12T06:29:05;11.80;88.20
25440;DHT22;13365;52.208;5.488;2022-10-12T06:31:31;12.00;89.20
25440;DHT22;13365;52.208;5.488;2022-10-12T06:33:58;12.00;88.10
25440;DHT22;13365;52.208;5.488;2022-10-12T06:36:23;12.00;88.20
25440;DHT22;13365;52.208;5.488;2022-10-12T06:38:49;12.20;88.10
25440;DHT22;13365;52.208;5.488;2022-10-12T06:41:15;12.20;87.80
25440;DHT22;13365;52.208;5.488;2022-10-12T06:43:40;12.10;87.90
25440;DHT22;13365;52.208;5.488;2022-10-12T06:46:06;12.20;87.90
25440;DHT22;13365;52.208;5.488;2022-10-12T06:48:31;12.30;87.70
25440;DHT22;13365;52.208;5.488;2022-10-12T06:50:58;12.30;87.90
25440;DHT22;13365;52.208;5.488;2022-10-12T06:53:23;12.30;87.70
25440;DHT22;13365;52.208;5.488;2022-10-12T06:55:51;12.40;87.60
25440;DHT22;13365;52.208;5.488;2022-10-12T06:58:16;12.30;87.50
25440;DHT22;13365;52.208;5.488;2022-10-12T07:00:42;12.30;87.70
25440;DHT22;13365;52.208;5.488;2022-10-12T07:03:11;12.40;88.00
25440;DHT22;13365;52.208;5.488;2022-10-12T07:05:37;12.40;88.00
25440;DHT22;13365;52.208;5.488;2022-10-12T07:08:02;12.40;88.10
25440;DHT22;13365;52.208;5.488;2022-10-12T07:10:28;12.50;88.00
25440;DHT22;13365;52.208;5.488;2022-10-12T07:12:53;12.50;88.00
25440;DHT22;13365;52.208;5.488;2022-10-12T07:15:19;12.40;88.10
25440;DHT22;13365;52.208;5.488;2022-10-12T07:17:44;12.40;88.20
25440;DHT22;13365;52.208;5.488;2022-10-12T07:20:10;12.60;88.60
25440;DHT22;13365;52.208;5.488;2022-10-12T07:22:35;12.60;88.60
25440;DHT22;13365;52.208;5.488;2022-10-12T07:25:01;12.70;88.90
25440;DHT22;13365;52.208;5.488;2022-10-12T07:27:26;12.70;89.20
25440;DHT22;13365;52.208;5.488;2022-10-12T07:29:52;12.90;89.50
25440;DHT22;13365;52.208;5.488;2022-10-12T07:32:17;13.00;89.50
25440;DHT22;13365;52.208;5.488;2022-10-12T07:34:43;13.20;89.70
25440;DHT22;13365;52.208;5.488;2022-10-12T07:37:09;13.30;89.50
25440;DHT22;13365;52.208;5.488;2022-10-12T07:39:35;13.50;89.70
25440;DHT22;13365;52.208;5.488;2022-10-12T07:42:00;13.50;90.00
25440;DHT22;13365;52.208;5.488;2022-10-12T07:44:26;13.70;89.80
25440;DHT22;13365;52.208;5.488;2022-10-12T07:46:51;13.80;89.70
25440;DHT22;13365;52.208;5.488;2022-10-12T07:49:17;13.90;89.40
25440;DHT22;13365;52.208;5.488;2022-10-12T07:51:43;14.10;89.20
25440;DHT22;13365;52.208;5.488;2022-10-12T07:54:10;14.10;89.20
25440;DHT22;13365;52.208;5.488;2022-10-12T07:56:36;14.10;89.20
25440;DHT22;13365;52.208;5.488;2022-10-12T07:59:02;14.30;89.40
25440;DHT22;13365;52.208;5.488;2022-10-12T08:01:30;14.30;89.80
25440;DHT22;13365;52.208;5.488;2022-10-12T08:03:56;14.60;89.30
25440;DHT22;13365;52.208;5.488;2022-10-12T08:06:24;14.70;89.00
25440;DHT22;13365;52.208;5.488;2022-10-12T08:08:50;14.70;89.20
25440;DHT22;13365;52.208;5.488;2022-10-12T08:11:17;14.90;88.40
25440;DHT22;13365;52.208;5.488;2022-10-12T08:13:43;14.90;88.80
25440;DHT22;13365;52.208;5.488;2022-10-12T08:16:12;15.00;89.20
25440;DHT22;13365;52.208;5.488;2022-10-12T08:18:38;15.10;89.20
25440;DHT22;13365;52.208;5.488;2022-10-12T08:21:05;15.20;88.70
25440;DHT22;13365;52.208;5.488;2022-10-12T08:23:33;15.30;88.60
25440;DHT22;13365;52.208;5.488;2022-10-12T08:25:59;15.40;88.60
25440;DHT22;13365;52.208;5.488;2022-10-12T08:28:24;15.50;87.60
25440;DHT22;13365;52.208;5.488;2022-10-12T08:30:50;15.60;87.50
25440;DHT22;13365;52.208;5.488;2022-10-12T08:33:16;15.60;87.70
25440;DHT22;13365;52.208;5.488;2022-10-12T08:35:43;15.60;88.10
25440;DHT22;13365;52.208;5.488;2022-10-12T08:38:10;15.90;88.60
25440;DHT22;13365;52.208;5.488;2022-10-12T08:40:55;16.00;87.90
25440;DHT22;13365;52.208;5.488;2022-10-12T08:46:03;16.20;88.50
25440;DHT22;13365;52.208;5.488;2022-10-12T08:48:57;16.30;88.20
25440;DHT22;13365;52.208;5.488;2022-10-12T08:51:24;16.60;87.50
25440;DHT22;13365;52.208;5.488;2022-10-12T08:56:20;16.80;88.70
25440;DHT22;13365;52.208;5.488;2022-10-12T08:58:47;17.20;88.10
25440;DHT22;13365;52.208;5.488;2022-10-12T09:01:37;17.30;88.90
25440;DHT22;13365;52.208;5.488;2022-10-12T09:06:46;18.00;85.30
25440;DHT22;13365;52.208;5.488;2022-10-12T09:12:55;18.40;83.90
25440;DHT22;13365;52.208;5.488;2022-10-12T09:15:31;18.60;82.20
25440;DHT22;13365;52.208;5.488;2022-10-12T09:17:59;18.90;82.90
25440;DHT22;13365;52.208;5.488;2022-10-12T09:20:28;18.90;82.40
25440;DHT22;13365;52.208;5.488;2022-10-12T09:25:37;19.00;81.30
25440;DHT22;13365;52.208;5.488;2022-10-12T09:28:25;19.30;82.60
25440;DHT22;13365;52.208;5.488;2022-10-12T09:31:10;19.40;81.40
25440;DHT22;13365;52.208;5.488;2022-10-12T09:33:43;19.50;80.70
25440;DHT22;13365;52.208;5.488;2022-10-12T09:36:17;19.70;80.60
25440;DHT22;13365;52.208;5.488;2022-10-12T09:38:43;19.70;79.90
25440;DHT22;13365;52.208;5.488;2022-10-12T09:41:34;19.80;81.50
25440;DHT22;13365;52.208;5.488;2022-10-12T09:44:02;19.90;82.50
25440;DHT22;13365;52.208;5.488;2022-10-12T09:46:50;20.10;78.70
25440;DHT22;13365;52.208;5.488;2022-10-12T09:49:18;20.40;78.30
25440;DHT22;13365;52.208;5.488;2022-10-12T09:51:44;20.40;79.10
25440;DHT22;13365;52.208;5.488;2022-10-12T09:54:17;20.40;76.90
25440;DHT22;13365;52.208;5.488;2022-10-12T09:56:50;20.50;76.50
25440;DHT22;13365;52.208;5.488;2022-10-12T09:59:29;20.40;76.80
25440;DHT22;13365;52.208;5.488;2022-10-12T10:04:36;20.80;77.60
25440;DHT22;13365;52.208;5.488;2022-10-12T10:07:32;20.80;76.40
25440;DHT22;13365;52.208;5.488;2022-10-12T10:10:22;20.80;77.20
25440;DHT22;13365;52.208;5.488;2022-10-12T10:12:52;20.90;75.20
25440;DHT22;13365;52.208;5.488;2022-10-12T10:17:51;20.90;73.70
25440;DHT22;13365;52.208;5.488;2022-10-12T10:20:35;21.10;76.00
25440;DHT22;13365;52.208;5.488;2022-10-12T10:23:03;21.30;72.60
25440;DHT22;13365;52.208;5.488;2022-10-12T10:25:30;21.20;72.00
25440;DHT22;13365;52.208;5.488;2022-10-12T10:30:35;21.20;71.70
25440;DHT22;13365;52.208;5.488;2022-10-12T10:33:14;21.20;72.30
25440;DHT22;13365;52.208;5.488;2022-10-12T10:35:40;21.20;72.50
25440;DHT22;13365;52.208;5.488;2022-10-12T10:38:10;21.20;73.70
25440;DHT22;13365;52.208;5.488;2022-10-12T10:40:39;21.10;73.40
25440;DHT22;13365;52.208;5.488;2022-10-12T10:43:17;21.10;75.50
25440;DHT22;13365;52.208;5.488;2022-10-12T10:45:49;21.30;75.30
25440;DHT22;13365;52.208;5.488;2022-10-12T10:48:18;21.20;75.40
25440;DHT22;13365;52.208;5.488;2022-10-12T10:50:50;21.30;73.80
25440;DHT22;13365;52.208;5.488;2022-10-12T10:53:22;21.30;74.90
25440;DHT22;13365;52.208;5.488;2022-10-12T10:56:06;21.40;73.30
25440;DHT22;13365;52.208;5.488;2022-10-12T11:01:20;21.40;72.80
25440;DHT22;13365;52.208;5.488;2022-10-12T11:03:54;21.60;70.00
25440;DHT22;13365;52.208;5.488;2022-10-12T11:06:43;21.70;70.10
25440;DHT22;13365;52.208;5.488;2022-10-12T11:09:39;21.90;70.30
25440;DHT22;13365;52.208;5.488;2022-10-12T11:12:11;21.80;69.30
25440;DHT22;13365;52.208;5.488;2022-10-12T11:14:47;21.90;69.80
25440;DHT22;13365;52.208;5.488;2022-10-12T11:17:18;21.90;70.50
25440;DHT22;13365;52.208;5.488;2022-10-12T11:19:54;22.00;69.10
25440;DHT22;13365;52.208;5.488;2022-10-12T11:22:31;22.00;68.60
25440;DHT22;13365;52.208;5.488;2022-10-12T11:25:13;22.00;67.90
25440;DHT22;13365;52.208;5.488;2022-10-12T11:27:43;21.90;69.60
25440;DHT22;13365;52.208;5.488;2022-10-12T11:30:16;22.00;69.40
25440;DHT22;13365;52.208;5.488;2022-10-12T11:32:54;22.10;68.00
25440;DHT22;13365;52.208;5.488;2022-10-12T11:35:27;22.10;67.80
25440;DHT22;13365;52.208;5.488;2022-10-12T11:37:57;22.00;68.30
25440;DHT22;13365;52.208;5.488;2022-10-12T11:40:39;22.00;68.60
25440;DHT22;13365;52.208;5.488;2022-10-12T11:43:12;21.90;66.80
25440;DHT22;13365;52.208;5.488;2022-10-12T11:45:42;21.90;68.50
25440;DHT22;13365;52.208;5.488;2022-10-12T11:48:14;21.70;67.90
25440;DHT22;13365;52.208;5.488;2022-10-12T11:50:46;21.80;70.20
25440;DHT22;13365;52.208;5.488;2022-10-12T11:53:26;22.10;67.60
25440;DHT22;13365;52.208;5.488;2022-10-12T11:58:31;21.90;65.70
25440;DHT22;13365;52.208;5.488;2022-10-12T12:08:57;22.20;66.60
25440;DHT22;13365;52.208;5.488;2022-10-12T12:11:25;22.10;65.90
25440;DHT22;13365;52.208;5.488;2022-10-12T12:17:08;21.80;67.90
25440;DHT22;13365;52.208;5.488;2022-10-12T12:19:43;21.60;67.50
25440;DHT22;13365;52.208;5.488;2022-10-12T12:22:22;21.60;67.90
25440;DHT22;13365;52.208;5.488;2022-10-12T12:27:51;21.70;69.80
25440;DHT22;13365;52.208;5.488;2022-10-12T12:35:33;21.80;72.00
25440;DHT22;13365;52.208;5.488;2022-10-12T12:40:40;21.70;69.50
25440;DHT22;13365;52.208;5.488;2022-10-12T12:46:13;21.60;69.30
25440;DHT22;13365;52.208;5.488;2022-10-12T12:51:07;21.60;68.90
25440;DHT22;13365;52.208;5.488;2022-10-12T13:14:12;21.10;70.90
25440;DHT22;13365;52.208;5.488;2022-10-12T13:19:43;21.10;69.40
25440;DHT22;13365;52.208;5.488;2022-10-12T13:22:15;21.10;70.10
25440;DHT22;13365;52.208;5.488;2022-10-12T13:24:48;21.00;69.60
25440;DHT22;13365;52.208;5.488;2022-10-12T13:30:21;21.00;69.60
25440;DHT22;13365;52.208;5.488;2022-10-12T13:35:45;20.90;70.10
25440;DHT22;13365;52.208;5.488;2022-10-12T13:40:48;20.60;70.70
25440;DHT22;13365;52.208;5.488;2022-10-12T13:45:48;20.50;71.20
25440;DHT22;13365;52.208;5.488;2022-10-12T13:48:20;20.60;72.40
25440;DHT22;13365;52.208;5.488;2022-10-12T13:51:05;20.60;72.60
25440;DHT22;13365;52.208;5.488;2022-10-12T13:53:42;20.70;72.60
25440;DHT22;13365;52.208;5.488;2022-10-12T13:56:13;20.90;72.50
25440;DHT22;13365;52.208;5.488;2022-10-12T13:58:40;20.80;72.00
25440;DHT22;13365;52.208;5.488;2022-10-12T14:01:05;20.90;72.40
25440;DHT22;13365;52.208;5.488;2022-10-12T14:03:40;21.10;72.70
25440;DHT22;13365;52.208;5.488;2022-10-12T14:06:25;21.20;72.60
25440;DHT22;13365;52.208;5.488;2022-10-12T14:08:55;21.20;71.80
25440;DHT22;13365;52.208;5.488;2022-10-12T14:11:21;21.30;71.50
25440;DHT22;13365;52.208;5.488;2022-10-12T14:13:47;21.20;71.90
25440;DHT22;13365;52.208;5.488;2022-10-12T14:16:13;21.20;71.40
25440;DHT22;13365;52.208;5.488;2022-10-12T14:18:41;21.00;71.20
25440;DHT22;13365;52.208;5.488;2022-10-12T14:23:40;21.10;72.00
25440;DHT22;13365;52.208;5.488;2022-10-12T14:28:46;21.10;72.30
25440;DHT22;13365;52.208;5.488;2022-10-12T14:31:11;21.10;73.00
25440;DHT22;13365;52.208;5.488;2022-10-12T14:33:37;21.20;72.50
25440;DHT22;13365;52.208;5.488;2022-10-12T14:36:24;21.10;72.90
25440;DHT22;13365;52.208;5.488;2022-10-12T14:38:51;21.20;73.10
25440;DHT22;13365;52.208;5.488;2022-10-12T14:41:35;21.40;72.50
25440;DHT22;13365;52.208;5.488;2022-10-12T14:46:31;21.90;72.30
25440;DHT22;13365;52.208;5.488;2022-10-12T14:48:56;22.00;70.60
25440;DHT22;13365;52.208;5.488;2022-10-12T14:51:22;22.00;69.90
25440;DHT22;13365;52.208;5.488;2022-10-12T14:54:00;22.00;70.50
25440;DHT22;13365;52.208;5.488;2022-10-12T14:56:26;22.10;70.70
25440;DHT22;13365;52.208;5.488;2022-10-12T14:58:51;22.10;70.50
25440;DHT22;13365;52.208;5.488;2022-10-12T15:01:17;22.00;70.70
25440;DHT22;13365;52.208;5.488;2022-10-12T15:03:43;21.90;71.00
25440;DHT22;13365;52.208;5.488;2022-10-12T15:06:15;22.00;71.80
25440;DHT22;13365;52.208;5.488;2022-10-12T15:08:42;21.90;71.60
25440;DHT22;13365;52.208;5.488;2022-10-12T15:11:12;21.80;71.80
25440;DHT22;13365;52.208;5.488;2022-10-12T15:13:38;21.60;70.80
25440;DHT22;13365;52.208;5.488;2022-10-12T15:16:10;21.50;70.80
25440;DHT22;13365;52.208;5.488;2022-10-12T15:18:38;21.40;70.60
25440;DHT22;13365;52.208;5.488;2022-10-12T15:21:04;21.20;71.20
25440;DHT22;13365;52.208;5.488;2022-10-12T15:23:29;21.20;72.60
25440;DHT22;13365;52.208;5.488;2022-10-12T15:25:55;21.10;72.30
25440;DHT22;13365;52.208;5.488;2022-10-12T15:28:24;21.10;72.60
25440;DHT22;13365;52.208;5.488;2022-10-12T15:30:49;21.20;72.60
25440;DHT22;13365;52.208;5.488;2022-10-12T15:33:15;21.20;72.20
25440;DHT22;13365;52.208;5.488;2022-10-12T15:35:40;21.20;72.40
25440;DHT22;13365;52.208;5.488;2022-10-12T15:38:06;21.20;72.70
25440;DHT22;13365;52.208;5.488;2022-10-12T15:40:42;21.20;73.10
25440;DHT22;13365;52.208;5.488;2022-10-12T15:43:09;21.20;73.00
25440;DHT22;13365;52.208;5.488;2022-10-12T15:45:36;21.20;73.70
25440;DHT22;13365;52.208;5.488;2022-10-12T15:48:03;21.20;73.10
25440;DHT22;13365;52.208;5.488;2022-10-12T15:50:47;21.20;73.10
25440;DHT22;13365;52.208;5.488;2022-10-12T15:53:17;21.40;73.90
25440;DHT22;13365;52.208;5.488;2022-10-12T15:55:45;21.40;73.80
25440;DHT22;13365;52.208;5.488;2022-10-12T15:58:10;21.50;73.90
25440;DHT22;13365;52.208;5.488;2022-10-12T16:00:36;21.60;72.30
25440;DHT22;13365;52.208;5.488;2022-10-12T16:03:01;21.60;72.60
25440;DHT22;13365;52.208;5.488;2022-10-12T16:05:34;21.80;71.90
25440;DHT22;13365;52.208;5.488;2022-10-12T16:08:01;21.70;72.10
25440;DHT22;13365;52.208;5.488;2022-10-12T16:10:29;21.60;72.10
25440;DHT22;13365;52.208;5.488;2022-10-12T16:12:56;21.50;71.90
25440;DHT22;13365;52.208;5.488;2022-10-12T16:15:27;21.30;72.10
25440;DHT22;13365;52.208;5.488;2022-10-12T16:17:56;21.20;72.20
25440;DHT22;13365;52.208;5.488;2022-10-12T16:20:22;21.20;72.90
25440;DHT22;13365;52.208;5.488;2022-10-12T16:22:48;21.10;73.20
25440;DHT22;13365;52.208;5.488;2022-10-12T16:25:15;20.90;72.70
25440;DHT22;13365;52.208;5.488;2022-10-12T16:27:44;20.80;72.80
25440;DHT22;13365;52.208;5.488;2022-10-12T16:30:13;20.90;73.40
25440;DHT22;13365;52.208;5.488;2022-10-12T16:32:39;20.90;74.20
25440;DHT22;13365;52.208;5.488;2022-10-12T16:35:05;20.70;73.30
25440;DHT22;13365;52.208;5.488;2022-10-12T16:37:31;20.50;73.50
25440;DHT22;13365;52.208;5.488;2022-10-12T16:39:57;20.70;74.90
25440;DHT22;13365;52.208;5.488;2022-10-12T16:42:23;20.70;74.50
25440;DHT22;13365;52.208;5.488;2022-10-12T16:44:48;20.70;74.30
25440;DHT22;13365;52.208;5.488;2022-10-12T16:47:14;20.70;74.20
25440;DHT22;13365;52.208;5.488;2022-10-12T16:49:40;20.70;74.20
25440;DHT22;13365;52.208;5.488;2022-10-12T16:52:07;20.50;74.00
25440;DHT22;13365;52.208;5.488;2022-10-12T16:54:33;20.40;73.60
25440;DHT22;13365;52.208;5.488;2022-10-12T16:56:58;20.40;73.80
25440;DHT22;13365;52.208;5.488;2022-10-12T16:59:24;20.40;74.50
25440;DHT22;13365;52.208;5.488;2022-10-12T17:01:50;20.20;74.60
25440;DHT22;13365;52.208;5.488;2022-10-12T17:04:16;20.10;74.50
25440;DHT22;13365;52.208;5.488;2022-10-12T17:06:42;20.10;74.50
25440;DHT22;13365;52.208;5.488;2022-10-12T17:09:08;20.00;74.80
25440;DHT22;13365;52.208;5.488;2022-10-12T17:11:35;19.90;75.20
25440;DHT22;13365;52.208;5.488;2022-10-12T17:14:05;19.70;75.10
25440;DHT22;13365;52.208;5.488;2022-10-12T17:16:32;19.60;75.30
25440;DHT22;13365;52.208;5.488;2022-10-12T17:19:26;19.50;75.90
25440;DHT22;13365;52.208;5.488;2022-10-12T17:21:55;19.50;76.00
25440;DHT22;13365;52.208;5.488;2022-10-12T17:24:25;19.40;76.20
25440;DHT22;13365;52.208;5.488;2022-10-12T17:26:51;19.20;76.20
25440;DHT22;13365;52.208;5.488;2022-10-12T17:29:18;19.10;76.40
25440;DHT22;13365;52.208;5.488;2022-10-12T17:31:44;19.00;76.60
25440;DHT22;13365;52.208;5.488;2022-10-12T17:36:50;18.90;76.70
25440;DHT22;13365;52.208;5.488;2022-10-12T17:39:17;18.80;76.70
25440;DHT22;13365;52.208;5.488;2022-10-12T17:41:43;18.70;76.80
25440;DHT22;13365;52.208;5.488;2022-10-12T17:44:09;18.60;77.10
25440;DHT22;13365;52.208;5.488;2022-10-12T17:46:36;18.60;77.50